sensor_id;sensor_type;location;lat;lon;timestamp;P1;durP1;ratioP1;P2;durP2;ratioP2
35847;SDS011;22332;51.954;20.118;2023-10-09T00:02:43;6.10;;;3.50;;
35847;SDS011;22332;51.954;20.118;2023-10-09T00:05:51;17.40;;;8.30;;
35847;SDS011;22332;51.954;20.118;2023-10-09T00:08:57;6.90;;;3.50;;
35847;SDS011;22332;51.954;20.118;2023-10-09T00:12:15;5.60;;;2.20;;
35847;SDS011;22332;51.954;20.118;2023-10-09T00:15:25;5.40;;;2.60;;
35847;SDS011;22332;51.954;20.118;2023-10-09T00:18:31;8.60;;;4.10;;
35847;SDS011;22332;51.954;20.118;2023-10-09T00:21:37;9.60;;;5.00;;
35847;SDS011;22332;51.954;20.118;2023-10-09T00:24:43;6.20;;;3.20;;
35847;SDS011;22332;51.954;20.118;2023-10-09T00:27:50;7.50;;;4.60;;
35847;SDS011;22332;51.954;20.118;2023-10-09T00:30:55;9.30;;;5.50;;
35847;SDS011;22332;51.954;20.118;2023-10-09T00:34:01;7.00;;;4.10;;
35847;SDS011;22332;51.954;20.118;2023-10-09T00:37:08;6.60;;;3.70;;
35847;SDS011;22332;51.954;20.118;2023-10-09T00:40:19;5.90;;;2.60;;
35847;SDS011;22332;51.954;20.118;2023-10-09T00:43:31;5.90;;;2.60;;
35847;SDS011;22332;51.954;20.118;2023-10-09T00:46:38;5.80;;;3.00;;
35847;SDS011;22332;51.954;20.118;2023-10-09T00:49:45;5.80;;;2.50;;
35847;SDS011;22332;51.954;20.118;2023-10-09T00:52:54;5.70;;;2.10;;
35847;SDS011;22332;51.954;20.118;2023-10-09T00:56:07;5.80;;;2.70;;
35847;SDS011;22332;51.954;20.118;2023-10-09T00:59:22;7.70;;;3.60;;
35847;SDS011;22332;51.954;20.118;2023-10-09T01:02:29;5.30;;;2.70;;
35847;SDS011;22332;51.954;20.118;2023-10-09T01:05:39;7.30;;;3.10;;
35847;SDS011;22332;51.954;20.118;2023-10-09T01:08:55;6.40;;;3.10;;
35847;SDS011;22332;51.954;20.118;2023-10-09T01:12:12;6.40;;;2.90;;
35847;SDS011;22332;51.954;20.118;2023-10-09T01:15:20;6.40;;;3.50;;
35847;SDS011;22332;51.954;20.118;2023-10-09T01:18:47;6.00;;;3.00;;
35847;SDS011;22332;51.954;20.118;2023-10-09T01:21:54;6.70;;;2.50;;
35847;SDS011;22332;51.954;20.118;2023-10-09T01:25:08;4.50;;;2.20;;
35847;SDS011;22332;51.954;20.118;2023-10-09T01:28:14;4.80;;;2.40;;
35847;SDS011;22332;51.954;20.118;2023-10-09T01:31:20;5.20;;;2.50;;
35847;SDS011;22332;51.954;20.118;2023-10-09T01:34:29;6.70;;;2.60;;
35847;SDS011;22332;51.954;20.118;2023-10-09T01:37:44;4.80;;;2.60;;
35847;SDS011;22332;51.954;20.118;2023-10-09T01:40:52;4.30;;;2.60;;
35847;SDS011;22332;51.954;20.118;2023-10-09T01:44:05;5.80;;;2.40;;
35847;SDS011;22332;51.954;20.118;2023-10-09T01:47:15;5.60;;;2.60;;
35847;SDS011;22332;51.954;20.118;2023-10-09T01:50:22;4.30;;;2.40;;
35847;SDS011;22332;51.954;20.118;2023-10-09T01:53:33;4.90;;;2.40;;
35847;SDS011;22332;51.954;20.118;2023-10-09T01:56:41;5.10;;;2.50;;
35847;SDS011;22332;51.954;20.118;2023-10-09T01:59:49;4.80;;;2.70;;
35847;SDS011;22332;51.954;20.118;2023-10-09T02:02:56;6.60;;;3.00;;
35847;SDS011;22332;51.954;20.118;2023-10-09T02:06:05;4.70;;;2.60;;
35847;SDS011;22332;51.954;20.118;2023-10-09T02:09:27;4.20;;;2.20;;
35847;SDS011;22332;51.954;20.118;2023-10-09T02:12:34;4.60;;;2.60;;
35847;SDS011;22332;51.954;20.118;2023-10-09T02:15:40;5.50;;;2.50;;
35847;SDS011;22332;51.954;20.118;2023-10-09T02:19:01;6.80;;;2.70;;
35847;SDS011;22332;51.954;20.118;2023-10-09T02:22:11;4.40;;;2.30;;
35847;SDS011;22332;51.954;20.118;2023-10-09T02:25:16;5.70;;;2.70;;
35847;SDS011;22332;51.954;20.118;2023-10-09T02:28:25;6.30;;;2.90;;
35847;SDS011;22332;51.954;20.118;2023-10-09T02:31:35;4.40;;;2.50;;
35847;SDS011;22332;51.954;20.118;2023-10-09T02:34:43;4.20;;;2.40;;
35847;SDS011;22332;51.954;20.118;2023-10-09T02:37:49;5.90;;;2.60;;
35847;SDS011;22332;51.954;20.118;2023-10-09T02:40:55;5.20;;;2.80;;
35847;SDS011;22332;51.954;20.118;2023-10-09T02:44:19;6.40;;;2.50;;
35847;SDS011;22332;51.954;20.118;2023-10-09T02:47:28;5.60;;;2.20;;
35847;SDS011;22332;51.954;20.118;2023-10-09T02:50:41;4.50;;;2.30;;
35847;SDS011;22332;51.954;20.118;2023-10-09T02:53:47;5.40;;;2.40;;
35847;SDS011;22332;51.954;20.118;2023-10-09T02:56:54;4.90;;;2.20;;
35847;SDS011;22332;51.954;20.118;2023-10-09T03:00:09;4.10;;;2.20;;
35847;SDS011;22332;51.954;20.118;2023-10-09T03:03:21;3.60;;;1.90;;
35847;SDS011;22332;51.954;20.118;2023-10-09T03:06:28;5.20;;;2.80;;
35847;SDS011;22332;51.954;20.118;2023-10-09T03:09:35;6.00;;;2.40;;
35847;SDS011;22332;51.954;20.118;2023-10-09T03:12:41;5.30;;;2.50;;
35847;SDS011;22332;51.954;20.118;2023-10-09T03:15:47;5.00;;;2.40;;
35847;SDS011;22332;51.954;20.118;2023-10-09T03:18:54;4.80;;;2.70;;
35847;SDS011;22332;51.954;20.118;2023-10-09T03:22:00;4.40;;;2.20;;
35847;SDS011;22332;51.954;20.118;2023-10-09T03:25:06;4.30;;;2.30;;
35847;SDS011;22332;51.954;20.118;2023-10-09T03:28:17;6.90;;;2.80;;
35847;SDS011;22332;51.954;20.118;2023-10-09T03:31:22;6.70;;;2.60;;
35847;SDS011;22332;51.954;20.118;2023-10-09T03:34:29;6.50;;;2.90;;
35847;SDS011;22332;51.954;20.118;2023-10-09T03:37:35;5.70;;;3.00;;
35847;SDS011;22332;51.954;20.118;2023-10-09T03:40:42;5.10;;;2.60;;
35847;SDS011;22332;51.954;20.118;2023-10-09T03:43:50;5.20;;;2.40;;
35847;SDS011;22332;51.954;20.118;2023-10-09T03:46:57;5.80;;;2.90;;
35847;SDS011;22332;51.954;20.118;2023-10-09T03:50:02;5.40;;;2.60;;
35847;SDS011;22332;51.954;20.118;2023-10-09T03:53:26;6.70;;;2.90;;
35847;SDS011;22332;51.954;20.118;2023-10-09T03:56:33;6.10;;;2.90;;
35847;SDS011;22332;51.954;20.118;2023-10-09T03:59:38;5.10;;;2.50;;
35847;SDS011;22332;51.954;20.118;2023-10-09T04:02:45;5.00;;;2.80;;
35847;SDS011;22332;51.954;20.118;2023-10-09T04:05:52;5.30;;;3.00;;
35847;SDS011;22332;51.954;20.118;2023-10-09T04:08:59;5.70;;;3.40;;
35847;SDS011;22332;51.954;20.118;2023-10-09T04:12:16;5.90;;;3.40;;
35847;SDS011;22332;51.954;20.118;2023-10-09T04:15:27;7.80;;;4.00;;
35847;SDS011;22332;51.954;20.118;2023-10-09T04:18:38;7.50;;;3.40;;
35847;SDS011;22332;51.954;20.118;2023-10-09T04:21:47;8.20;;;3.90;;
35847;SDS011;22332;51.954;20.118;2023-10-09T04:24:58;6.80;;;3.80;;
35847;SDS011;22332;51.954;20.118;2023-10-09T04:28:04;7.90;;;3.90;;
35847;SDS011;22332;51.954;20.118;2023-10-09T04:31:12;8.00;;;4.00;;
35847;SDS011;22332;51.954;20.118;2023-10-09T04:34:20;8.10;;;4.00;;
35847;SDS011;22332;51.954;20.118;2023-10-09T04:37:26;6.20;;;3.50;;
35847;SDS011;22332;51.954;20.118;2023-10-09T04:40:40;6.50;;;3.80;;
35847;SDS011;22332;51.954;20.118;2023-10-09T04:43:54;7.10;;;3.90;;
35847;SDS011;22332;51.954;20.118;2023-10-09T04:47:16;6.30;;;3.30;;
35847;SDS011;22332;51.954;20.118;2023-10-09T04:50:22;8.10;;;4.00;;
35847;SDS011;22332;51.954;20.118;2023-10-09T04:53:42;7.60;;;4.20;;
35847;SDS011;22332;51.954;20.118;2023-10-09T04:56:53;7.80;;;4.10;;
35847;SDS011;22332;51.954;20.118;2023-10-09T04:59:58;9.50;;;3.90;;
35847;SDS011;22332;51.954;20.118;2023-10-09T05:03:09;8.10;;;4.00;;
35847;SDS011;22332;51.954;20.118;2023-10-09T05:06:27;8.50;;;3.80;;
35847;SDS011;22332;51.954;20.118;2023-10-09T05:09:57;6.50;;;3.90;;
35847;SDS011;22332;51.954;20.118;2023-10-09T05:13:17;8.50;;;4.20;;
35847;SDS011;22332;51.954;20.118;2023-10-09T05:16:43;9.30;;;4.60;;
35847;SDS011;22332;51.954;20.118;2023-10-09T05:19:57;11.10;;;5.00;;
35847;SDS011;22332;51.954;20.118;2023-10-09T05:23:17;7.10;;;4.10;;
35847;SDS011;22332;51.954;20.118;2023-10-09T05:26:28;9.80;;;4.40;;
35847;SDS011;22332;51.954;20.118;2023-10-09T05:29:53;9.00;;;4.30;;
35847;SDS011;22332;51.954;20.118;2023-10-09T05:33:15;9.30;;;4.50;;
35847;SDS011;22332;51.954;20.118;2023-10-09T05:36:36;8.90;;;4.40;;
35847;SDS011;22332;51.954;20.118;2023-10-09T05:39:50;7.30;;;3.90;;
35847;SDS011;22332;51.954;20.118;2023-10-09T05:43:22;8.80;;;4.50;;
35847;SDS011;22332;51.954;20.118;2023-10-09T05:46:44;8.30;;;4.20;;
35847;SDS011;22332;51.954;20.118;2023-10-09T05:50:12;7.60;;;4.50;;
35847;SDS011;22332;51.954;20.118;2023-10-09T05:53:37;8.30;;;4.30;;
35847;SDS011;22332;51.954;20.118;2023-10-09T05:57:19;7.00;;;3.90;;
35847;SDS011;22332;51.954;20.118;2023-10-09T06:00:51;10.40;;;4.60;;
35847;SDS011;22332;51.954;20.118;2023-10-09T06:04:14;9.00;;;4.80;;
35847;SDS011;22332;51.954;20.118;2023-10-09T06:07:21;8.90;;;4.40;;
35847;SDS011;22332;51.954;20.118;2023-10-09T06:10:43;10.30;;;5.40;;
35847;SDS011;22332;51.954;20.118;2023-10-09T06:13:50;9.20;;;5.10;;
35847;SDS011;22332;51.954;20.118;2023-10-09T06:17:06;10.00;;;5.20;;
35847;SDS011;22332;51.954;20.118;2023-10-09T06:20:26;9.20;;;5.40;;
35847;SDS011;22332;51.954;20.118;2023-10-09T06:24:06;9.20;;;5.20;;
35847;SDS011;22332;51.954;20.118;2023-10-09T06:27:17;8.50;;;5.10;;
35847;SDS011;22332;51.954;20.118;2023-10-09T06:30:48;7.50;;;4.50;;
35847;SDS011;22332;51.954;20.118;2023-10-09T06:33:55;9.70;;;4.90;;
35847;SDS011;22332;51.954;20.118;2023-10-09T06:37:12;8.60;;;5.10;;
35847;SDS011;22332;51.954;20.118;2023-10-09T06:40:22;9.10;;;5.50;;
35847;SDS011;22332;51.954;20.118;2023-10-09T06:43:41;8.20;;;4.30;;
35847;SDS011;22332;51.954;20.118;2023-10-09T06:46:50;9.70;;;5.40;;
35847;SDS011;22332;51.954;20.118;2023-10-09T06:50:00;8.60;;;4.80;;
35847;SDS011;22332;51.954;20.118;2023-10-09T06:53:26;10.30;;;4.70;;
35847;SDS011;22332;51.954;20.118;2023-10-09T06:56:52;8.50;;;4.30;;
35847;SDS011;22332;51.954;20.118;2023-10-09T07:00:15;8.60;;;4.80;;
35847;SDS011;22332;51.954;20.118;2023-10-09T07:03:50;9.30;;;4.90;;
35847;SDS011;22332;51.954;20.118;2023-10-09T07:06:56;9.00;;;4.40;;
35847;SDS011;22332;51.954;20.118;2023-10-09T07:10:02;7.30;;;4.80;;
35847;SDS011;22332;51.954;20.118;2023-10-09T07:13:26;7.40;;;4.60;;
35847;SDS011;22332;51.954;20.118;2023-10-09T07:16:32;8.00;;;4.60;;
35847;SDS011;22332;51.954;20.118;2023-10-09T07:19:42;9.50;;;4.50;;
35847;SDS011;22332;51.954;20.118;2023-10-09T07:23:11;10.30;;;5.00;;
35847;SDS011;22332;51.954;20.118;2023-10-09T07:26:20;7.80;;;4.60;;
35847;SDS011;22332;51.954;20.118;2023-10-09T07:29:39;8.10;;;4.60;;
35847;SDS011;22332;51.954;20.118;2023-10-09T07:32:51;9.40;;;4.80;;
35847;SDS011;22332;51.954;20.118;2023-10-09T07:36:00;7.30;;;4.40;;
35847;SDS011;22332;51.954;20.118;2023-10-09T07:39:10;7.30;;;5.00;;
35847;SDS011;22332;51.954;20.118;2023-10-09T07:42:20;9.40;;;5.40;;
35847;SDS011;22332;51.954;20.118;2023-10-09T07:45:36;9.20;;;5.80;;
35847;SDS011;22332;51.954;20.118;2023-10-09T07:49:00;10.60;;;6.10;;
35847;SDS011;22332;51.954;20.118;2023-10-09T07:52:12;15.80;;;7.50;;
35847;SDS011;22332;51.954;20.118;2023-10-09T07:55:18;15.10;;;8.60;;
35847;SDS011;22332;51.954;20.118;2023-10-09T07:58:42;13.80;;;7.20;;
35847;SDS011;22332;51.954;20.118;2023-10-09T08:01:50;19.00;;;13.90;;
35847;SDS011;22332;51.954;20.118;2023-10-09T08:04:57;41.50;;;21.50;;
35847;SDS011;22332;51.954;20.118;2023-10-09T08:08:09;257.80;;;122.40;;
35847;SDS011;22332;51.954;20.118;2023-10-09T08:15:07;176.10;;;84.50;;
35847;SDS011;22332;51.954;20.118;2023-10-09T08:18:28;40.00;;;18.50;;
35847;SDS011;22332;51.954;20.118;2023-10-09T08:21:34;37.00;;;20.50;;
35847;SDS011;22332;51.954;20.118;2023-10-09T08:24:46;23.50;;;12.10;;
35847;SDS011;22332;51.954;20.118;2023-10-09T08:27:59;55.20;;;34.80;;
35847;SDS011;22332;51.954;20.118;2023-10-09T08:31:24;19.50;;;11.80;;
35847;SDS011;22332;51.954;20.118;2023-10-09T08:34:47;10.90;;;6.60;;
35847;SDS011;22332;51.954;20.118;2023-10-09T08:37:56;9.30;;;6.50;;
35847;SDS011;22332;51.954;20.118;2023-10-09T08:41:11;108.60;;;64.10;;
35847;SDS011;22332;51.954;20.118;2023-10-09T08:44:20;206.90;;;109.80;;
35847;SDS011;22332;51.954;20.118;2023-10-09T08:47:28;94.50;;;48.70;;
35847;SDS011;22332;51.954;20.118;2023-10-09T08:50:36;78.40;;;48.10;;
35847;SDS011;22332;51.954;20.118;2023-10-09T08:53:42;23.10;;;14.30;;
35847;SDS011;22332;51.954;20.118;2023-10-09T08:56:48;15.40;;;8.80;;
35847;SDS011;22332;51.954;20.118;2023-10-09T08:59:54;12.60;;;7.80;;
35847;SDS011;22332;51.954;20.118;2023-10-09T09:02:59;11.30;;;6.80;;
35847;SDS011;22332;51.954;20.118;2023-10-09T09:06:06;9.60;;;6.20;;
35847;SDS011;22332;51.954;20.118;2023-10-09T09:09:12;12.00;;;6.60;;
35847;SDS011;22332;51.954;20.118;2023-10-09T09:12:18;10.70;;;5.50;;
35847;SDS011;22332;51.954;20.118;2023-10-09T09:15:26;8.80;;;5.60;;
35847;SDS011;22332;51.954;20.118;2023-10-09T09:18:33;10.80;;;5.90;;
35847;SDS011;22332;51.954;20.118;2023-10-09T09:22:03;9.20;;;5.70;;
35847;SDS011;22332;51.954;20.118;2023-10-09T09:25:16;11.60;;;6.10;;
35847;SDS011;22332;51.954;20.118;2023-10-09T09:28:26;12.90;;;6.70;;
35847;SDS011;22332;51.954;20.118;2023-10-09T09:31:50;8.80;;;5.80;;
35847;SDS011;22332;51.954;20.118;2023-10-09T09:34:58;10.30;;;5.90;;
35847;SDS011;22332;51.954;20.118;2023-10-09T09:38:05;8.30;;;5.80;;
35847;SDS011;22332;51.954;20.118;2023-10-09T09:41:17;11.40;;;6.10;;
35847;SDS011;22332;51.954;20.118;2023-10-09T09:44:27;9.30;;;5.80;;
35847;SDS011;22332;51.954;20.118;2023-10-09T09:47:35;8.70;;;5.90;;
35847;SDS011;22332;51.954;20.118;2023-10-09T09:50:42;8.80;;;5.30;;
35847;SDS011;22332;51.954;20.118;2023-10-09T09:53:49;8.70;;;5.00;;
35847;SDS011;22332;51.954;20.118;2023-10-09T09:56:56;7.00;;;5.10;;
35847;SDS011;22332;51.954;20.118;2023-10-09T10:00:04;8.60;;;5.20;;
35847;SDS011;22332;51.954;20.118;2023-10-09T10:03:30;7.30;;;4.80;;
35847;SDS011;22332;51.954;20.118;2023-10-09T10:06:40;7.60;;;4.90;;
35847;SDS011;22332;51.954;20.118;2023-10-09T10:09:50;8.70;;;5.40;;
35847;SDS011;22332;51.954;20.118;2023-10-09T10:13:00;7.90;;;4.60;;
35847;SDS011;22332;51.954;20.118;2023-10-09T10:16:07;7.80;;;4.90;;
35847;SDS011;22332;51.954;20.118;2023-10-09T10:19:16;17.60;;;12.00;;
35847;SDS011;22332;51.954;20.118;2023-10-09T10:22:27;20.60;;;15.80;;
35847;SDS011;22332;51.954;20.118;2023-10-09T10:25:35;14.70;;;10.60;;
35847;SDS011;22332;51.954;20.118;2023-10-09T10:28:44;9.40;;;6.60;;
35847;SDS011;22332;51.954;20.118;2023-10-09T10:32:10;8.00;;;4.60;;
35847;SDS011;22332;51.954;20.118;2023-10-09T10:35:21;5.90;;;4.20;;
35847;SDS011;22332;51.954;20.118;2023-10-09T10:38:35;8.10;;;4.30;;
35847;SDS011;22332;51.954;20.118;2023-10-09T10:41:53;9.20;;;4.60;;
35847;SDS011;22332;51.954;20.118;2023-10-09T10:45:00;5.80;;;3.50;;
35847;SDS011;22332;51.954;20.118;2023-10-09T10:48:26;5.00;;;3.30;;
35847;SDS011;22332;51.954;20.118;2023-10-09T10:51:41;7.20;;;3.60;;
35847;SDS011;22332;51.954;20.118;2023-10-09T10:54:51;5.40;;;3.20;;
35847;SDS011;22332;51.954;20.118;2023-10-09T10:58:20;4.40;;;2.90;;
35847;SDS011;22332;51.954;20.118;2023-10-09T11:01:38;4.60;;;2.50;;
35847;SDS011;22332;51.954;20.118;2023-10-09T11:05:17;3.70;;;2.50;;
35847;SDS011;22332;51.954;20.118;2023-10-09T11:08:27;3.10;;;2.20;;
35847;SDS011;22332;51.954;20.118;2023-10-09T11:11:35;3.90;;;2.60;;
35847;SDS011;22332;51.954;20.118;2023-10-09T11:14:46;5.30;;;3.10;;
35847;SDS011;22332;51.954;20.118;2023-10-09T11:18:10;3.80;;;2.50;;
35847;SDS011;22332;51.954;20.118;2023-10-09T11:21:28;6.40;;;2.80;;
35847;SDS011;22332;51.954;20.118;2023-10-09T11:24:43;4.90;;;2.70;;
35847;SDS011;22332;51.954;20.118;2023-10-09T11:27:49;4.10;;;2.70;;
35847;SDS011;22332;51.954;20.118;2023-10-09T11:31:07;4.10;;;2.60;;
35847;SDS011;22332;51.954;20.118;2023-10-09T11:34:21;4.60;;;2.50;;
35847;SDS011;22332;51.954;20.118;2023-10-09T11:37:34;4.60;;;2.50;;
35847;SDS011;22332;51.954;20.118;2023-10-09T11:40:42;3.80;;;2.50;;
35847;SDS011;22332;51.954;20.118;2023-10-09T11:44:07;4.10;;;2.50;;
35847;SDS011;22332;51.954;20.118;2023-10-09T11:47:21;4.10;;;2.60;;
35847;SDS011;22332;51.954;20.118;2023-10-09T11:50:40;4.30;;;2.60;;
35847;SDS011;22332;51.954;20.118;2023-10-09T11:53:52;5.50;;;2.70;;
35847;SDS011;22332;51.954;20.118;2023-10-09T11:57:00;6.00;;;3.30;;
35847;SDS011;22332;51.954;20.118;2023-10-09T12:00:07;4.40;;;3.10;;
35847;SDS011;22332;51.954;20.118;2023-10-09T12:03:31;6.30;;;2.90;;
35847;SDS011;22332;51.954;20.118;2023-10-09T12:06:36;5.70;;;2.90;;
35847;SDS011;22332;51.954;20.118;2023-10-09T12:09:45;4.90;;;2.70;;
35847;SDS011;22332;51.954;20.118;2023-10-09T12:12:51;5.40;;;2.50;;
35847;SDS011;22332;51.954;20.118;2023-10-09T12:16:00;3.90;;;2.70;;
35847;SDS011;22332;51.954;20.118;2023-10-09T12:19:10;9.40;;;4.10;;
35847;SDS011;22332;51.954;20.118;2023-10-09T12:22:16;7.60;;;3.40;;
35847;SDS011;22332;51.954;20.118;2023-10-09T12:25:24;54.60;;;31.10;;
35847;SDS011;22332;51.954;20.118;2023-10-09T12:28:34;17.70;;;9.90;;
35847;SDS011;22332;51.954;20.118;2023-10-09T12:31:39;8.10;;;5.60;;
35847;SDS011;22332;51.954;20.118;2023-10-09T12:34:48;6.50;;;4.00;;
35847;SDS011;22332;51.954;20.118;2023-10-09T12:37:54;5.50;;;3.60;;
35847;SDS011;22332;51.954;20.118;2023-10-09T12:41:07;3.80;;;2.90;;
35847;SDS011;22332;51.954;20.118;2023-10-09T12:44:20;6.10;;;3.70;;
35847;SDS011;22332;51.954;20.118;2023-10-09T12:47:29;4.70;;;3.50;;
35847;SDS011;22332;51.954;20.118;2023-10-09T12:50:35;5.30;;;3.90;;
35847;SDS011;22332;51.954;20.118;2023-10-09T12:53:44;4.10;;;2.60;;
35847;SDS011;22332;51.954;20.118;2023-10-09T12:56:51;5.00;;;2.90;;
35847;SDS011;22332;51.954;20.118;2023-10-09T12:59:57;4.00;;;3.30;;
35847;SDS011;22332;51.954;20.118;2023-10-09T13:03:03;5.20;;;3.10;;
35847;SDS011;22332;51.954;20.118;2023-10-09T13:06:20;19.20;;;8.60;;
35847;SDS011;22332;51.954;20.118;2023-10-09T13:09:27;5.30;;;3.10;;
35847;SDS011;22332;51.954;20.118;2023-10-09T13:12:38;5.10;;;2.60;;
35847;SDS011;22332;51.954;20.118;2023-10-09T13:15:44;6.00;;;4.60;;
35847;SDS011;22332;51.954;20.118;2023-10-09T13:18:50;7.70;;;4.20;;
35847;SDS011;22332;51.954;20.118;2023-10-09T13:21:56;5.40;;;3.40;;
35847;SDS011;22332;51.954;20.118;2023-10-09T13:25:06;10.40;;;7.60;;
35847;SDS011;22332;51.954;20.118;2023-10-09T13:28:19;4.90;;;3.80;;
35847;SDS011;22332;51.954;20.118;2023-10-09T13:31:25;9.90;;;8.30;;
35847;SDS011;22332;51.954;20.118;2023-10-09T13:34:34;6.70;;;4.10;;
35847;SDS011;22332;51.954;20.118;2023-10-09T13:37:47;6.30;;;4.70;;
35847;SDS011;22332;51.954;20.118;2023-10-09T13:40:58;4.60;;;3.40;;
35847;SDS011;22332;51.954;20.118;2023-10-09T13:44:04;7.10;;;3.40;;
35847;SDS011;22332;51.954;20.118;2023-10-09T13:47:12;5.50;;;2.90;;
35847;SDS011;22332;51.954;20.118;2023-10-09T13:50:24;4.00;;;2.80;;
35847;SDS011;22332;51.954;20.118;2023-10-09T13:53:34;5.00;;;3.90;;
35847;SDS011;22332;51.954;20.118;2023-10-09T13:56:47;4.50;;;3.10;;
35847;SDS011;22332;51.954;20.118;2023-10-09T13:59:56;5.00;;;3.10;;
35847;SDS011;22332;51.954;20.118;2023-10-09T14:03:04;5.60;;;3.10;;
35847;SDS011;22332;51.954;20.118;2023-10-09T14:06:15;4.30;;;2.40;;
35847;SDS011;22332;51.954;20.118;2023-10-09T14:09:33;4.20;;;3.10;;
35847;SDS011;22332;51.954;20.118;2023-10-09T14:12:48;9.30;;;7.20;;
35847;SDS011;22332;51.954;20.118;2023-10-09T14:15:57;6.30;;;4.10;;
35847;SDS011;22332;51.954;20.118;2023-10-09T14:19:05;6.40;;;4.10;;
35847;SDS011;22332;51.954;20.118;2023-10-09T14:22:16;7.00;;;5.50;;
35847;SDS011;22332;51.954;20.118;2023-10-09T14:25:23;6.70;;;3.90;;
35847;SDS011;22332;51.954;20.118;2023-10-09T14:28:32;5.90;;;4.50;;
35847;SDS011;22332;51.954;20.118;2023-10-09T14:31:40;120.00;;;53.30;;
35847;SDS011;22332;51.954;20.118;2023-10-09T14:34:45;35.50;;;19.00;;
35847;SDS011;22332;51.954;20.118;2023-10-09T14:37:52;10.60;;;6.40;;
35847;SDS011;22332;51.954;20.118;2023-10-09T14:40:58;8.40;;;4.30;;
35847;SDS011;22332;51.954;20.118;2023-10-09T14:44:05;6.00;;;3.70;;
35847;SDS011;22332;51.954;20.118;2023-10-09T14:47:19;7.30;;;4.90;;
35847;SDS011;22332;51.954;20.118;2023-10-09T14:50:25;6.40;;;5.10;;
35847;SDS011;22332;51.954;20.118;2023-10-09T14:53:30;20.60;;;15.00;;
35847;SDS011;22332;51.954;20.118;2023-10-09T14:56:37;9.60;;;6.50;;
35847;SDS011;22332;51.954;20.118;2023-10-09T14:59:44;12.20;;;7.10;;
35847;SDS011;22332;51.954;20.118;2023-10-09T15:02:50;15.30;;;11.50;;
35847;SDS011;22332;51.954;20.118;2023-10-09T15:05:56;26.10;;;20.20;;
35847;SDS011;22332;51.954;20.118;2023-10-09T15:09:04;16.40;;;12.00;;
35847;SDS011;22332;51.954;20.118;2023-10-09T15:12:17;11.30;;;7.50;;
35847;SDS011;22332;51.954;20.118;2023-10-09T15:15:23;10.50;;;7.70;;
35847;SDS011;22332;51.954;20.118;2023-10-09T15:18:30;9.90;;;7.10;;
35847;SDS011;22332;51.954;20.118;2023-10-09T15:21:40;9.60;;;7.10;;
35847;SDS011;22332;51.954;20.118;2023-10-09T15:24:47;11.20;;;7.70;;
35847;SDS011;22332;51.954;20.118;2023-10-09T15:27:53;10.10;;;7.30;;
35847;SDS011;22332;51.954;20.118;2023-10-09T15:31:00;10.00;;;6.50;;
35847;SDS011;22332;51.954;20.118;2023-10-09T15:34:06;10.00;;;6.90;;
35847;SDS011;22332;51.954;20.118;2023-10-09T15:37:12;9.40;;;6.90;;
35847;SDS011;22332;51.954;20.118;2023-10-09T15:40:20;10.60;;;6.90;;
35847;SDS011;22332;51.954;20.118;2023-10-09T15:43:27;8.60;;;6.00;;
35847;SDS011;22332;51.954;20.118;2023-10-09T15:46:35;8.90;;;6.20;;
35847;SDS011;22332;51.954;20.118;2023-10-09T15:49:41;9.00;;;6.10;;
35847;SDS011;22332;51.954;20.118;2023-10-09T15:52:47;7.60;;;5.00;;
35847;SDS011;22332;51.954;20.118;2023-10-09T15:55:54;7.50;;;4.80;;
35847;SDS011;22332;51.954;20.118;2023-10-09T15:59:04;7.70;;;5.70;;
35847;SDS011;22332;51.954;20.118;2023-10-09T16:02:10;8.40;;;5.60;;
35847;SDS011;22332;51.954;20.118;2023-10-09T16:05:16;6.70;;;4.60;;
35847;SDS011;22332;51.954;20.118;2023-10-09T16:08:36;7.40;;;4.50;;
35847;SDS011;22332;51.954;20.118;2023-10-09T16:11:42;6.90;;;3.90;;
35847;SDS011;22332;51.954;20.118;2023-10-09T16:14:48;6.80;;;3.70;;
35847;SDS011;22332;51.954;20.118;2023-10-09T16:17:58;7.50;;;4.10;;
35847;SDS011;22332;51.954;20.118;2023-10-09T16:21:06;7.10;;;4.20;;
35847;SDS011;22332;51.954;20.118;2023-10-09T16:24:15;5.80;;;4.10;;
35847;SDS011;22332;51.954;20.118;2023-10-09T16:27:22;5.60;;;3.60;;
35847;SDS011;22332;51.954;20.118;2023-10-09T16:30:28;6.00;;;4.40;;
35847;SDS011;22332;51.954;20.118;2023-10-09T16:33:33;6.30;;;4.60;;
35847;SDS011;22332;51.954;20.118;2023-10-09T16:36:48;6.70;;;4.40;;
35847;SDS011;22332;51.954;20.118;2023-10-09T16:39:57;7.10;;;5.40;;
35847;SDS011;22332;51.954;20.118;2023-10-09T16:43:04;8.80;;;6.50;;
35847;SDS011;22332;51.954;20.118;2023-10-09T16:46:16;9.70;;;6.20;;
35847;SDS011;22332;51.954;20.118;2023-10-09T16:49:25;7.20;;;4.40;;
35847;SDS011;22332;51.954;20.118;2023-10-09T16:52:35;7.10;;;4.10;;
35847;SDS011;22332;51.954;20.118;2023-10-09T16:55:41;6.40;;;4.10;;
35847;SDS011;22332;51.954;20.118;2023-10-09T16:58:47;5.60;;;4.00;;
35847;SDS011;22332;51.954;20.118;2023-10-09T17:01:55;4.60;;;3.20;;
35847;SDS011;22332;51.954;20.118;2023-10-09T17:05:00;6.30;;;3.40;;
35847;SDS011;22332;51.954;20.118;2023-10-09T17:08:07;5.50;;;3.50;;
35847;SDS011;22332;51.954;20.118;2023-10-09T17:11:13;4.90;;;3.40;;
35847;SDS011;22332;51.954;20.118;2023-10-09T17:14:22;6.20;;;3.30;;
35847;SDS011;22332;51.954;20.118;2023-10-09T17:17:29;5.30;;;3.50;;
35847;SDS011;22332;51.954;20.118;2023-10-09T17:20:40;6.60;;;3.80;;
35847;SDS011;22332;51.954;20.118;2023-10-09T17:23:51;6.30;;;3.50;;
35847;SDS011;22332;51.954;20.118;2023-10-09T17:26:57;5.70;;;3.10;;
35847;SDS011;22332;51.954;20.118;2023-10-09T17:30:04;4.70;;;2.80;;
35847;SDS011;22332;51.954;20.118;2023-10-09T17:33:11;6.00;;;3.80;;
35847;SDS011;22332;51.954;20.118;2023-10-09T17:36:17;9.30;;;4.60;;
35847;SDS011;22332;51.954;20.118;2023-10-09T17:39:22;7.20;;;4.10;;
35847;SDS011;22332;51.954;20.118;2023-10-09T17:42:29;6.30;;;4.00;;
35847;SDS011;22332;51.954;20.118;2023-10-09T17:45:37;8.90;;;4.20;;
35847;SDS011;22332;51.954;20.118;2023-10-09T17:48:44;8.90;;;4.90;;
35847;SDS011;22332;51.954;20.118;2023-10-09T17:51:49;9.20;;;4.50;;
35847;SDS011;22332;51.954;20.118;2023-10-09T17:54:55;9.70;;;4.40;;
35847;SDS011;22332;51.954;20.118;2023-10-09T17:58:04;7.00;;;4.20;;
35847;SDS011;22332;51.954;20.118;2023-10-09T18:01:10;6.50;;;4.10;;
35847;SDS011;22332;51.954;20.118;2023-10-09T18:04:15;7.10;;;4.30;;
35847;SDS011;22332;51.954;20.118;2023-10-09T18:07:21;9.80;;;5.90;;
35847;SDS011;22332;51.954;20.118;2023-10-09T18:10:27;16.00;;;10.00;;
35847;SDS011;22332;51.954;20.118;2023-10-09T18:13:36;14.00;;;8.30;;
35847;SDS011;22332;51.954;20.118;2023-10-09T18:16:41;11.80;;;7.00;;
35847;SDS011;22332;51.954;20.118;2023-10-09T18:19:47;11.50;;;6.70;;
35847;SDS011;22332;51.954;20.118;2023-10-09T18:22:54;12.10;;;7.40;;
35847;SDS011;22332;51.954;20.118;2023-10-09T18:26:01;13.70;;;6.60;;
35847;SDS011;22332;51.954;20.118;2023-10-09T18:29:09;21.40;;;8.70;;
35847;SDS011;22332;51.954;20.118;2023-10-09T18:32:16;20.30;;;8.90;;
35847;SDS011;22332;51.954;20.118;2023-10-09T18:35:26;23.50;;;11.50;;
35847;SDS011;22332;51.954;20.118;2023-10-09T18:38:33;36.60;;;15.00;;
35847;SDS011;22332;51.954;20.118;2023-10-09T18:41:42;35.90;;;15.50;;
35847;SDS011;22332;51.954;20.118;2023-10-09T18:44:51;38.60;;;16.80;;
35847;SDS011;22332;51.954;20.118;2023-10-09T18:47:56;42.10;;;17.10;;
35847;SDS011;22332;51.954;20.118;2023-10-09T18:51:02;35.90;;;15.40;;
35847;SDS011;22332;51.954;20.118;2023-10-09T18:54:10;44.20;;;18.30;;